createdAt,value
2023-03-05T00:01:33.568Z,0.22
2023-03-05T00:04:03.486Z,0.22
2023-03-05T00:06:33.044Z,0.22
2023-03-05T00:09:01.143Z,0.22
2023-03-05T00:11:33.820Z,0.23
2023-03-05T00:14:06.634Z,0.24
2023-03-05T00:16:34.659Z,0.27
2023-03-05T00:19:02.926Z,0.30
2023-03-05T00:21:38.536Z,0.34
2023-03-05T00:24:18.350Z,0.39
2023-03-05T00:26:46.957Z,0.47
2023-03-05T00:29:18.642Z,0.54
2023-03-05T00:31:46.632Z,0.58
2023-03-05T00:34:16.728Z,0.60
2023-03-05T00:36:48.888Z,0.61
2023-03-05T00:39:19.966Z,0.60
2023-03-05T00:41:48.478Z,0.57
2023-03-05T00:44:16.470Z,0.53
2023-03-05T00:46:45.138Z,0.49
2023-03-05T00:49:13.289Z,0.47
2023-03-05T00:51:42.860Z,0.50
2023-03-05T00:54:11.020Z,0.54
2023-03-05T00:56:39.013Z,0.57
2023-03-05T00:59:07.156Z,0.58
2023-03-05T01:01:35.263Z,0.62
2023-03-05T01:04:04.098Z,0.65
2023-03-05T01:06:32.125Z,0.66
2023-03-05T01:09:00.717Z,0.67
2023-03-05T01:11:28.833Z,0.67
2023-03-05T01:13:57.023Z,0.67
2023-03-05T01:16:25.102Z,0.70
2023-03-05T01:18:53.174Z,0.74
2023-03-05T01:21:22.508Z,0.78
2023-03-05T01:23:50.528Z,0.74
2023-03-05T01:26:18.500Z,0.68
2023-03-05T01:28:46.503Z,0.61
2023-03-05T01:31:14.660Z,0.56
2023-03-05T01:33:42.896Z,0.47
2023-03-05T01:36:16.015Z,0.40
2023-03-05T01:38:46.469Z,0.32
2023-03-05T01:41:16.633Z,0.26
2023-03-05T01:43:47.047Z,0.22
2023-03-05T01:46:27.165Z,0.17
2023-03-05T01:49:01.541Z,0.12
2023-03-05T01:51:35.465Z,0.09
2023-03-05T01:54:06.400Z,0.05
2023-03-05T01:56:34.688Z,0.02
2023-03-05T01:59:03.680Z,-0.02
2023-03-05T02:01:53.535Z,-0.06
2023-03-05T02:04:26.696Z,-0.09
2023-03-05T02:06:54.652Z,-0.13
2023-03-05T02:09:25.571Z,-0.16
2023-03-05T02:11:53.551Z,-0.19
2023-03-05T02:14:24.485Z,-0.23
2023-03-05T02:16:52.839Z,-0.27
2023-03-05T02:19:20.940Z,-0.31
2023-03-05T02:21:50.635Z,-0.34
2023-03-05T02:24:35.075Z,-0.37
2023-03-05T02:27:05.140Z,-0.40
2023-03-05T02:29:37.285Z,-0.43
2023-03-05T02:32:05.602Z,-0.45
2023-03-05T02:34:33.719Z,-0.47
2023-03-05T02:37:04.992Z,-0.47
2023-03-05T02:39:33.964Z,-0.48
2023-03-05T02:42:01.901Z,-0.49
2023-03-05T02:44:30.653Z,-0.49
2023-03-05T02:46:58.531Z,-0.51
2023-03-05T02:49:27.289Z,-0.51
2023-03-05T02:51:55.543Z,-0.51
2023-03-05T02:54:23.508Z,-0.54
2023-03-05T02:56:52.049Z,-0.55
2023-03-05T02:59:20.101Z,-0.53
2023-03-05T03:02:34.393Z,-0.53
2023-03-05T03:05:03.017Z,-0.54
2023-03-05T03:07:31.088Z,-0.53
2023-03-05T03:09:59.238Z,-0.52
2023-03-05T03:12:27.272Z,-0.53
2023-03-05T03:14:55.285Z,-0.53
2023-03-05T03:17:23.327Z,-0.55
2023-03-05T03:19:51.231Z,-0.58
2023-03-05T03:22:19.310Z,-0.60
2023-03-05T03:24:47.307Z,-0.60
2023-03-05T03:27:15.925Z,-0.58
2023-03-05T03:29:43.857Z,-0.56
2023-03-05T03:32:11.846Z,-0.54
2023-03-05T03:34:39.994Z,-0.51
2023-03-05T03:37:09.046Z,-0.49
2023-03-05T03:39:36.947Z,-0.47
2023-03-05T03:42:05.389Z,-0.47
2023-03-05T03:44:33.676Z,-0.48
2023-03-05T03:47:01.797Z,-0.52
2023-03-05T03:49:29.847Z,-0.55
2023-03-05T03:51:58.364Z,-0.59
2023-03-05T03:54:26.394Z,-0.63
2023-03-05T03:56:55.104Z,-0.69
2023-03-05T03:59:23.925Z,-0.73
2023-03-05T04:01:52.099Z,-0.77
2023-03-05T04:04:20.058Z,-0.79
2023-03-05T04:06:48.032Z,-0.84
2023-03-05T04:09:16.014Z,-0.89
2023-03-05T04:11:44.128Z,-0.94
2023-03-05T04:14:12.284Z,-1.01
2023-03-05T04:16:40.332Z,-1.07
2023-03-05T04:19:08.490Z,-1.11
2023-03-05T04:21:36.500Z,-1.15
2023-03-05T04:24:04.803Z,-1.19
2023-03-05T04:26:32.811Z,-1.21
2023-03-05T04:29:00.805Z,-1.24
2023-03-05T04:31:28.907Z,-1.25
2023-03-05T04:33:56.871Z,-1.26
2023-03-05T04:36:24.940Z,-1.27
2023-03-05T04:38:52.967Z,-1.26
2023-03-05T04:41:20.970Z,-1.26
2023-03-05T04:43:48.983Z,-1.26
2023-03-05T04:46:17.080Z,-1.27
2023-03-05T04:48:45.126Z,-1.29
2023-03-05T04:51:13.205Z,-1.31
2023-03-05T04:53:41.186Z,-1.34
2023-03-05T04:56:09.273Z,-1.36
2023-03-05T04:58:37.205Z,-1.38
2023-03-05T05:01:06.773Z,-1.40
2023-03-05T05:03:35.117Z,-1.40
2023-03-05T05:06:03.408Z,-1.39
2023-03-05T05:08:32.125Z,-1.37
2023-03-05T05:11:03.371Z,-1.35
2023-03-05T05:13:32.845Z,-1.35
2023-03-05T05:16:00.942Z,-1.35
2023-03-05T05:18:29.025Z,-1.32
2023-03-05T05:20:56.906Z,-1.28
2023-03-05T05:23:24.957Z,-1.23
2023-03-05T05:26:01.518Z,-1.17
2023-03-05T05:28:30.079Z,-1.11
2023-03-05T05:30:58.089Z,-1.04
2023-03-05T05:33:27.700Z,-0.98
2023-03-05T05:35:55.697Z,-0.91
2023-03-05T05:38:23.632Z,-0.84
2023-03-05T05:40:51.481Z,-0.77
2023-03-05T05:43:19.424Z,-0.70
2023-03-05T05:45:47.549Z,-0.63
2023-03-05T05:48:15.754Z,-0.53
2023-03-05T05:50:44.229Z,-0.44
2023-03-05T05:53:12.206Z,-0.35
2023-03-05T05:55:41.358Z,-0.24
2023-03-05T05:58:09.374Z,-0.14
2023-03-05T06:00:37.423Z,-0.05
2023-03-05T06:03:05.459Z,0.02
2023-03-05T06:05:34.485Z,0.10
2023-03-05T06:08:02.559Z,0.17
2023-03-05T06:10:30.636Z,0.22
2023-03-05T06:12:58.724Z,0.25
2023-03-05T06:15:26.860Z,0.26
2023-03-05T06:17:54.947Z,0.26
2023-03-05T06:20:23.671Z,0.25
2023-03-05T06:22:51.834Z,0.24
2023-03-05T06:25:20.039Z,0.24
2023-03-05T06:27:48.036Z,0.23
2023-03-05T06:30:16.304Z,0.21
2023-03-05T06:32:45.166Z,0.24
2023-03-05T06:35:14.204Z,0.29
2023-03-05T06:37:42.441Z,0.39
2023-03-05T06:40:12.072Z,0.51
2023-03-05T06:42:40.050Z,0.62
2023-03-05T06:45:09.430Z,0.70
2023-03-05T06:47:37.679Z,0.77
2023-03-05T06:50:06.559Z,0.81
2023-03-05T06:52:34.619Z,0.86
2023-03-05T06:55:03.664Z,0.89
2023-03-05T06:57:31.709Z,0.94
2023-03-05T06:59:59.998Z,1.00
2023-03-05T07:02:28.138Z,1.06
2023-03-05T07:04:56.265Z,1.08
2023-03-05T07:07:24.255Z,1.11
2023-03-05T07:09:54.111Z,1.14
2023-03-05T07:12:22.076Z,1.17
2023-03-05T07:14:50.285Z,1.19
2023-03-05T07:17:18.582Z,1.22
2023-03-05T07:19:46.669Z,1.25
2023-03-05T07:22:14.808Z,1.28
2023-03-05T07:24:43.090Z,1.31
2023-03-05T07:27:11.291Z,1.34
2023-03-05T07:29:39.463Z,1.36
2023-03-05T07:32:07.583Z,1.36
2023-03-05T07:34:37.860Z,1.35
2023-03-05T07:37:05.966Z,1.34
2023-03-05T07:39:34.184Z,1.38
2023-03-05T07:42:02.415Z,1.46
2023-03-05T07:44:31.348Z,1.57
2023-03-05T07:46:59.659Z,1.74
2023-03-05T07:49:27.963Z,1.91
2023-03-05T07:51:56.043Z,2.04
2023-03-05T07:54:24.571Z,2.19
2023-03-05T07:56:55.854Z,2.34
2023-03-05T07:59:23.979Z,2.48
2023-03-05T08:01:51.987Z,2.58
2023-03-05T08:04:20.034Z,2.69
2023-03-05T08:06:50.024Z,2.82
2023-03-05T08:09:19.230Z,2.93
2023-03-05T08:11:47.548Z,3.09
2023-03-05T08:14:15.905Z,3.19
2023-03-05T08:16:47.218Z,3.30
2023-03-05T08:19:16.359Z,3.39
2023-03-05T08:21:44.747Z,3.52
2023-03-05T08:24:14.652Z,3.62
2023-03-05T08:26:43.731Z,3.68
2023-03-05T08:29:11.825Z,3.70
2023-03-05T08:31:45.543Z,3.77
2023-03-05T08:34:13.530Z,3.84
2023-03-05T08:36:42.119Z,3.96
2023-03-05T08:39:10.397Z,4.09
2023-03-05T08:41:39.326Z,4.19
2023-03-05T08:44:07.843Z,4.28
2023-03-05T08:46:37.182Z,4.34
2023-03-05T08:49:07.338Z,4.41
2023-03-05T08:51:36.738Z,4.53
2023-03-05T08:54:07.250Z,4.65
2023-03-05T08:56:35.590Z,4.67
2023-03-05T08:59:04.657Z,4.70
2023-03-05T09:01:33.314Z,4.75
2023-03-05T09:04:01.941Z,4.87
2023-03-05T09:06:30.036Z,4.90
2023-03-05T09:08:58.094Z,4.94
2023-03-05T09:11:26.418Z,5.07
2023-03-05T09:13:54.417Z,5.20
2023-03-05T09:16:22.496Z,5.28
2023-03-05T09:18:50.635Z,5.39
2023-03-05T09:21:18.719Z,5.52
2023-03-05T09:23:50.085Z,5.63
2023-03-05T09:26:22.228Z,5.74
2023-03-05T09:28:50.465Z,5.85
2023-03-05T09:31:19.287Z,5.91
2023-03-05T09:33:49.358Z,6.07
2023-03-05T09:36:21.337Z,6.21
2023-03-05T09:38:50.636Z,6.45
2023-03-05T09:41:40.472Z,6.78
2023-03-05T09:44:33.006Z,6.94
2023-03-05T09:47:24.810Z,6.96
2023-03-05T09:49:58.641Z,6.94
2023-03-05T09:52:49.383Z,6.79
2023-03-05T09:55:26.259Z,6.65
2023-03-05T09:57:58.640Z,6.54
2023-03-05T10:00:49.354Z,6.48
2023-03-05T10:03:46.680Z,6.35
2023-03-05T10:06:25.268Z,6.24
2023-03-05T10:09:17.549Z,6.16
2023-03-05T10:12:01.159Z,6.06
2023-03-05T10:14:39.823Z,5.97
2023-03-05T10:17:17.031Z,5.96
2023-03-05T10:20:14.127Z,5.82
2023-03-05T10:23:01.809Z,5.66
2023-03-05T10:26:08.291Z,5.53
2023-03-05T10:28:56.588Z,5.41
2023-03-05T10:31:37.740Z,5.44
2023-03-05T10:34:31.460Z,5.54
2023-03-05T10:37:27.443Z,5.64
2023-03-05T10:39:55.260Z,5.69
2023-03-05T10:42:52.815Z,5.66
2023-03-05T10:45:36.770Z,5.70
2023-03-05T10:48:14.781Z,5.75
2023-03-05T10:50:49.924Z,5.76
2023-03-05T10:53:33.085Z,5.82
2023-03-05T10:56:05.766Z,5.80
2023-03-05T10:58:33.905Z,5.75
2023-03-05T11:01:04.408Z,5.78
2023-03-05T11:03:53.610Z,5.82
2023-03-05T11:06:40.463Z,5.80
2023-03-05T11:09:29.818Z,5.69
2023-03-05T11:12:20.499Z,5.62
2023-03-05T11:15:03.190Z,5.60
2023-03-05T11:17:34.101Z,5.53
2023-03-05T11:20:26.435Z,5.44
2023-03-05T11:23:15.773Z,5.40
2023-03-05T11:25:56.070Z,5.40
2023-03-05T11:28:33.392Z,5.49
2023-03-05T11:31:17.276Z,5.61
2023-03-05T11:33:56.131Z,5.77
2023-03-05T11:36:29.788Z,5.95
2023-03-05T11:39:18.045Z,6.16
2023-03-05T11:41:53.409Z,6.38
2023-03-05T11:44:28.882Z,6.53
2023-03-05T11:47:05.074Z,6.68
2023-03-05T11:49:45.916Z,6.62
2023-03-05T11:52:31.148Z,6.47
2023-03-05T11:55:14.905Z,6.53
2023-03-05T11:57:50.688Z,6.64
2023-03-05T12:00:25.076Z,6.64
2023-03-05T12:02:56.936Z,6.56
2023-03-05T12:05:25.947Z,6.36
2023-03-05T12:07:58.359Z,6.21
2023-03-05T12:10:26.882Z,6.16
2023-03-05T12:12:57.686Z,6.15
2023-03-05T12:15:29.548Z,6.24
2023-03-05T12:18:16.120Z,6.45
2023-03-05T12:20:47.207Z,6.62
2023-03-05T12:23:19.089Z,6.71
2023-03-05T12:25:53.235Z,6.67
2023-03-05T12:28:36.479Z,6.61
2023-03-05T12:31:10.216Z,6.60
2023-03-05T12:33:41.450Z,6.69
2023-03-05T12:36:36.142Z,6.66
2023-03-05T12:39:42.578Z,6.71
2023-03-05T12:42:28.808Z,6.90
2023-03-05T12:45:16.136Z,6.89
2023-03-05T12:47:56.310Z,6.85
2023-03-05T12:50:27.157Z,6.81
2023-03-05T12:53:04.342Z,6.67
2023-03-05T12:55:36.281Z,6.62
2023-03-05T12:58:34.667Z,6.69
2023-03-05T13:01:11.885Z,6.77
2023-03-05T13:03:51.826Z,6.80
2023-03-05T13:06:24.253Z,6.83
2023-03-05T13:09:08.122Z,6.79
2023-03-05T13:11:39.379Z,6.74
2023-03-05T13:14:26.026Z,6.62
2023-03-05T13:16:53.939Z,6.53
2023-03-05T13:19:22.909Z,6.50
2023-03-05T13:22:11.097Z,6.47
2023-03-05T13:24:39.007Z,6.34
2023-03-05T13:27:29.276Z,6.21
2023-03-05T13:29:57.408Z,6.03
2023-03-05T13:32:28.459Z,5.89
2023-03-05T13:34:59.223Z,5.80
2023-03-05T13:37:31.553Z,5.77
2023-03-05T13:40:07.138Z,5.76
2023-03-05T13:42:36.872Z,5.74
2023-03-05T13:45:08.179Z,5.74
2023-03-05T13:47:36.660Z,5.73
2023-03-05T13:50:08.318Z,5.69
2023-03-05T13:52:38.202Z,5.58
2023-03-05T13:55:15.027Z,5.46
2023-03-05T13:57:45.892Z,5.36
2023-03-05T14:00:27.931Z,5.30
2023-03-05T14:03:00.391Z,5.18
2023-03-05T14:05:31.024Z,5.06
2023-03-05T14:07:59.044Z,4.96
2023-03-05T14:10:34.553Z,4.90
2023-03-05T14:13:06.620Z,4.88
2023-03-05T14:15:35.682Z,4.90
2023-03-05T14:18:12.753Z,4.92
2023-03-05T14:21:17.531Z,4.87
2023-03-05T14:23:48.033Z,4.84
2023-03-05T14:26:29.383Z,4.77
2023-03-05T14:29:03.744Z,4.73
2023-03-05T14:31:39.586Z,4.69
2023-03-05T14:34:08.000Z,4.68
2023-03-05T14:36:36.353Z,4.65
2023-03-05T14:39:05.142Z,4.62
2023-03-05T14:41:41.421Z,4.61
2023-03-05T14:44:15.259Z,4.57
2023-03-05T14:46:43.845Z,4.53
2023-03-05T14:49:11.849Z,4.46
2023-03-05T14:51:43.692Z,4.38
2023-03-05T14:54:20.684Z,4.27
2023-03-05T14:56:49.848Z,4.19
2023-03-05T14:59:21.334Z,4.05
2023-03-05T15:01:50.930Z,3.92
2023-03-05T15:04:20.143Z,3.86
2023-03-05T15:06:51.280Z,3.84
2023-03-05T15:09:20.627Z,3.86
2023-03-05T15:11:49.969Z,3.85
2023-03-05T15:14:17.994Z,3.80
2023-03-05T15:16:46.802Z,3.74
2023-03-05T15:19:14.800Z,3.72
2023-03-05T15:21:42.907Z,3.69
2023-03-05T15:24:11.547Z,3.58
2023-03-05T15:26:39.783Z,3.51
2023-03-05T15:29:07.824Z,3.44
2023-03-05T15:31:38.857Z,3.42
2023-03-05T15:34:07.241Z,3.41
2023-03-05T15:36:35.150Z,3.41
2023-03-05T15:39:03.218Z,3.40
2023-03-05T15:41:31.146Z,3.40
2023-03-05T15:43:59.090Z,3.41
2023-03-05T15:46:27.398Z,3.42
2023-03-05T15:48:55.437Z,3.43
2023-03-05T15:51:23.381Z,3.43
2023-03-05T15:53:51.614Z,3.41
2023-03-05T15:56:19.892Z,3.41
2023-03-05T15:58:52.873Z,3.40
2023-03-05T16:01:20.966Z,3.40
2023-03-05T16:03:52.304Z,3.38
2023-03-05T16:06:23.438Z,3.37
2023-03-05T16:08:55.135Z,3.35
2023-03-05T16:11:23.315Z,3.31
2023-03-05T16:13:51.437Z,3.27
2023-03-05T16:16:20.346Z,3.22
2023-03-05T16:18:48.696Z,3.20
2023-03-05T16:21:17.283Z,3.17
2023-03-05T16:23:45.298Z,3.15
2023-03-05T16:26:13.340Z,3.13
2023-03-05T16:28:41.327Z,3.09
2023-03-05T16:31:09.361Z,3.06
2023-03-05T16:33:37.840Z,3.02
2023-03-05T16:36:11.865Z,3.00
2023-03-05T16:38:39.925Z,2.99
2023-03-05T16:41:08.935Z,2.98
2023-03-05T16:43:37.109Z,2.97
2023-03-05T16:46:05.423Z,2.95
2023-03-05T16:48:35.812Z,2.91
2023-03-05T16:51:04.923Z,2.88
2023-03-05T16:53:33.211Z,2.87
2023-03-05T16:56:06.377Z,2.84
2023-03-05T16:58:35.962Z,2.83
2023-03-05T17:01:09.633Z,2.81
2023-03-05T17:03:41.366Z,2.79
2023-03-05T17:06:18.099Z,2.77
2023-03-05T17:08:46.487Z,2.76
2023-03-05T17:11:15.561Z,2.72
2023-03-05T17:13:44.047Z,2.71
2023-03-05T17:16:14.117Z,2.70
2023-03-05T17:18:42.514Z,2.69
2023-03-05T17:21:12.265Z,2.67
2023-03-05T17:23:41.176Z,2.66
2023-03-05T17:26:15.884Z,2.66
2023-03-05T17:28:44.589Z,2.67
2023-03-05T17:31:14.231Z,2.66
2023-03-05T17:33:42.744Z,2.66
2023-03-05T17:36:16.212Z,2.64
2023-03-05T17:38:45.553Z,2.63
2023-03-05T17:41:14.826Z,2.62
2023-03-05T17:43:42.863Z,2.61
2023-03-05T17:46:12.047Z,2.60
2023-03-05T17:48:40.059Z,2.59
2023-03-05T17:51:11.626Z,2.58
2023-03-05T17:53:40.424Z,2.57
2023-03-05T17:56:14.143Z,2.54
2023-03-05T17:58:42.130Z,2.52
2023-03-05T18:01:10.065Z,2.50
2023-03-05T18:03:38.062Z,2.50
2023-03-05T18:06:06.217Z,2.49
2023-03-05T18:08:34.383Z,2.48
2023-03-05T18:11:02.356Z,2.47
2023-03-05T18:13:30.444Z,2.46
2023-03-05T18:16:01.664Z,2.45
2023-03-05T18:18:29.837Z,2.45
2023-03-05T18:20:58.132Z,2.44
2023-03-05T18:23:26.053Z,2.43
2023-03-05T18:25:54.165Z,2.42
2023-03-05T18:28:22.260Z,2.42
2023-03-05T18:30:50.803Z,2.40
2023-03-05T18:33:23.791Z,2.39
2023-03-05T18:35:52.808Z,2.38
2023-03-05T18:38:22.583Z,2.37
2023-03-05T18:40:54.330Z,2.36
2023-03-05T18:43:24.134Z,2.35
2023-03-05T18:45:54.785Z,2.35
2023-03-05T18:48:23.438Z,2.35
2023-03-05T18:50:53.328Z,2.34
2023-03-05T18:53:22.718Z,2.34
2023-03-05T18:55:52.306Z,2.33
2023-03-05T18:58:23.142Z,2.33
2023-03-05T19:00:52.837Z,2.32
2023-03-05T19:03:22.905Z,2.31
2023-03-05T19:05:51.480Z,2.31
2023-03-05T19:08:20.044Z,2.31
2023-03-05T19:10:48.133Z,2.29
2023-03-05T19:13:40.873Z,2.28
2023-03-05T19:16:15.495Z,2.28
2023-03-05T19:19:12.583Z,2.27
2023-03-05T19:21:48.888Z,2.27
2023-03-05T19:24:17.036Z,2.25
2023-03-05T19:26:47.984Z,2.24
2023-03-05T19:29:16.655Z,2.23
2023-03-05T19:31:44.677Z,2.25
2023-03-05T19:34:12.853Z,2.25
2023-03-05T19:36:41.038Z,2.25
2023-03-05T19:39:09.410Z,2.25
2023-03-05T19:41:37.680Z,2.26
2023-03-05T19:44:06.584Z,2.25
2023-03-05T19:46:34.603Z,2.25
2023-03-05T19:53:31.555Z,2.24
2023-03-05T19:56:03.134Z,2.23
2023-03-05T19:58:31.866Z,2.24
2023-03-05T20:01:29.557Z,2.24
2023-03-05T20:03:59.571Z,2.23
2023-03-05T20:06:30.289Z,2.22
2023-03-05T20:08:59.550Z,2.23
2023-03-05T20:11:28.545Z,2.23
2023-03-05T20:13:57.247Z,2.23
2023-03-05T20:16:35.370Z,2.23
2023-03-05T20:19:07.571Z,2.22
2023-03-05T20:21:40.992Z,2.21
2023-03-05T20:24:12.751Z,2.18
2023-03-05T20:26:46.529Z,2.18
2023-03-05T20:29:17.854Z,2.17
2023-03-05T20:31:50.182Z,2.17
2023-03-05T20:34:19.814Z,2.15
2023-03-05T20:36:48.277Z,2.13
2023-03-05T20:39:16.437Z,2.11
2023-03-05T20:41:49.396Z,2.10
2023-03-05T20:44:17.689Z,2.10
2023-03-05T20:47:16.596Z,2.09
2023-03-05T20:49:46.912Z,2.08
2023-03-05T20:52:17.139Z,2.08
2023-03-05T20:54:47.930Z,2.08
2023-03-05T20:57:15.936Z,2.08
2023-03-05T20:59:43.901Z,2.07
2023-03-05T21:02:12.067Z,2.07
2023-03-05T21:04:40.476Z,2.07
2023-03-05T21:07:09.773Z,2.06
2023-03-05T21:09:37.981Z,2.04
2023-03-05T21:12:08.017Z,2.04
2023-03-05T21:14:40.662Z,2.03
2023-03-05T21:17:09.065Z,2.02
2023-03-05T21:19:39.092Z,2.00
2023-03-05T21:22:07.249Z,1.99
2023-03-05T21:25:15.910Z,1.99
2023-03-05T21:27:44.597Z,1.98
2023-03-05T21:30:12.928Z,1.97
2023-03-05T21:32:41.122Z,1.97
2023-03-05T21:35:15.096Z,1.97
2023-03-05T21:37:43.315Z,1.97
2023-03-05T21:40:14.231Z,1.96
2023-03-05T21:42:43.185Z,1.97
2023-03-05T21:45:14.051Z,1.96
2023-03-05T21:47:42.367Z,1.96
2023-03-05T21:50:12.950Z,1.96
2023-03-05T21:52:41.135Z,1.94
2023-03-05T21:55:13.943Z,1.94
2023-03-05T21:57:42.331Z,1.93
2023-03-05T22:00:17.314Z,1.92
2023-03-05T22:02:45.970Z,1.92
2023-03-05T22:05:15.677Z,1.92
2023-03-05T22:07:45.412Z,1.90
2023-03-05T22:10:17.619Z,1.89
2023-03-05T22:13:08.269Z,1.87
2023-03-05T22:15:49.803Z,1.85
2023-03-05T22:18:26.554Z,1.83
2023-03-05T22:20:54.975Z,1.81
2023-03-05T22:23:25.240Z,1.79
2023-03-05T22:25:58.846Z,1.79
2023-03-05T22:28:28.031Z,1.77
2023-03-05T22:30:56.754Z,1.76
2023-03-05T22:33:25.725Z,1.76
2023-03-05T22:35:54.662Z,1.76
2023-03-05T22:38:23.412Z,1.77
2023-03-05T22:40:51.909Z,1.78
2023-03-05T22:43:20.730Z,1.79
2023-03-05T22:45:48.800Z,1.78
2023-03-05T22:48:17.114Z,1.78
2023-03-05T22:50:45.134Z,1.78
2023-03-05T22:53:13.243Z,1.77
2023-03-05T22:55:42.422Z,1.77
2023-03-05T22:58:10.600Z,1.77
2023-03-05T23:00:38.563Z,1.77
2023-03-05T23:03:06.676Z,1.77
2023-03-05T23:05:35.612Z,1.78
2023-03-05T23:08:03.682Z,1.78
2023-03-05T23:10:31.861Z,1.77
2023-03-05T23:13:01.478Z,1.77
2023-03-05T23:15:34.177Z,1.77
2023-03-05T23:18:03.180Z,1.76
2023-03-05T23:20:35.098Z,1.76
2023-03-05T23:23:04.298Z,1.74
2023-03-05T23:25:35.012Z,1.73
2023-03-05T23:28:03.761Z,1.71
2023-03-05T23:30:34.598Z,1.70
2023-03-05T23:33:15.623Z,1.69
2023-03-05T23:35:54.175Z,1.69
2023-03-05T23:38:23.676Z,1.69
2023-03-05T23:40:54.140Z,1.69
2023-03-05T23:43:27.062Z,1.68
2023-03-05T23:45:55.414Z,1.66
2023-03-05T23:48:25.793Z,1.66
2023-03-05T23:50:54.409Z,1.65
2023-03-05T23:53:27.821Z,1.64
2023-03-05T23:55:56.323Z,1.63
2023-03-05T23:58:24.407Z,1.62
